sensor_id;sensor_type;location;lat;lon;timestamp;P1;durP1;ratioP1;P2;durP2;ratioP2
651;SDS011;310;48.490;9.200;2023-06-04T00:01:04;79.30;;;2.47;;
651;SDS011;310;48.490;9.200;2023-06-04T00:03:30;79.27;;;2.73;;
651;SDS011;310;48.490;9.200;2023-06-04T00:05:57;80.13;;;2.67;;
651;SDS011;310;48.490;9.200;2023-06-04T00:08:23;80.57;;;2.97;;
651;SDS011;310;48.490;9.200;2023-06-04T00:10:48;79.40;;;2.77;;
651;SDS011;310;48.490;9.200;2023-06-04T00:13:14;78.90;;;2.50;;
651;SDS011;310;48.490;9.200;2023-06-04T00:15:40;78.67;;;2.43;;
651;SDS011;310;48.490;9.200;2023-06-04T00:18:06;79.03;;;2.57;;
651;SDS011;310;48.490;9.200;2023-06-04T00:20:32;81.60;;;2.73;;
651;SDS011;310;48.490;9.200;2023-06-04T00:22:58;79.47;;;2.50;;
651;SDS011;310;48.490;9.200;2023-06-04T00:25:23;79.60;;;2.83;;
651;SDS011;310;48.490;9.200;2023-06-04T00:27:49;79.10;;;2.50;;
651;SDS011;310;48.490;9.200;2023-06-04T00:30:14;80.40;;;2.80;;
651;SDS011;310;48.490;9.200;2023-06-04T00:32:40;79.17;;;2.30;;
651;SDS011;310;48.490;9.200;2023-06-04T00:35:06;80.60;;;2.83;;
651;SDS011;310;48.490;9.200;2023-06-04T00:37:32;79.87;;;2.80;;
651;SDS011;310;48.490;9.200;2023-06-04T00:39:58;79.60;;;2.60;;
651;SDS011;310;48.490;9.200;2023-06-04T00:42:24;79.77;;;2.50;;
651;SDS011;310;48.490;9.200;2023-06-04T00:44:50;80.10;;;2.50;;
651;SDS011;310;48.490;9.200;2023-06-04T00:47:16;80.07;;;2.67;;
651;SDS011;310;48.490;9.200;2023-06-04T00:49:43;82.00;;;3.17;;
651;SDS011;310;48.490;9.200;2023-06-04T00:52:10;79.70;;;2.33;;
651;SDS011;310;48.490;9.200;2023-06-04T00:54:38;81.07;;;2.50;;
651;SDS011;310;48.490;9.200;2023-06-04T00:57:04;80.77;;;2.90;;
651;SDS011;310;48.490;9.200;2023-06-04T00:59:31;79.90;;;2.47;;
651;SDS011;310;48.490;9.200;2023-06-04T01:07:24;79.97;;;2.30;;
651;SDS011;310;48.490;9.200;2023-06-04T01:09:55;80.40;;;2.70;;
651;SDS011;310;48.490;9.200;2023-06-04T01:12:21;82.10;;;3.50;;
651;SDS011;310;48.490;9.200;2023-06-04T01:14:47;80.00;;;2.37;;
651;SDS011;310;48.490;9.200;2023-06-04T01:24:56;80.57;;;2.50;;
651;SDS011;310;48.490;9.200;2023-06-04T01:27:27;80.47;;;2.67;;
651;SDS011;310;48.490;9.200;2023-06-04T01:29:55;80.80;;;2.80;;
651;SDS011;310;48.490;9.200;2023-06-04T01:32:22;80.17;;;2.13;;
651;SDS011;310;48.490;9.200;2023-06-04T01:34:48;80.87;;;2.50;;
651;SDS011;310;48.490;9.200;2023-06-04T01:37:14;80.73;;;2.73;;
651;SDS011;310;48.490;9.200;2023-06-04T01:39:41;80.57;;;2.47;;
651;SDS011;310;48.490;9.200;2023-06-04T01:42:07;81.67;;;2.97;;
651;SDS011;310;48.490;9.200;2023-06-04T01:44:33;80.53;;;2.30;;
651;SDS011;310;48.490;9.200;2023-06-04T01:46:59;81.13;;;2.67;;
651;SDS011;310;48.490;9.200;2023-06-04T01:49:25;81.60;;;3.00;;
651;SDS011;310;48.490;9.200;2023-06-04T01:51:50;80.80;;;2.40;;
651;SDS011;310;48.490;9.200;2023-06-04T01:54:16;81.60;;;3.00;;
651;SDS011;310;48.490;9.200;2023-06-04T01:56:42;82.37;;;3.07;;
651;SDS011;310;48.490;9.200;2023-06-04T01:59:08;81.80;;;2.90;;
651;SDS011;310;48.490;9.200;2023-06-04T02:01:37;82.03;;;2.83;;
651;SDS011;310;48.490;9.200;2023-06-04T02:04:03;81.00;;;2.07;;
651;SDS011;310;48.490;9.200;2023-06-04T02:06:28;83.13;;;2.73;;
651;SDS011;310;48.490;9.200;2023-06-04T02:08:55;82.17;;;2.60;;
651;SDS011;310;48.490;9.200;2023-06-04T02:11:21;83.07;;;3.20;;
651;SDS011;310;48.490;9.200;2023-06-04T02:13:46;81.27;;;2.17;;
651;SDS011;310;48.490;9.200;2023-06-04T02:16:12;81.77;;;2.63;;
651;SDS011;310;48.490;9.200;2023-06-04T02:18:38;81.80;;;2.57;;
651;SDS011;310;48.490;9.200;2023-06-04T02:21:04;82.37;;;3.03;;
651;SDS011;310;48.490;9.200;2023-06-04T02:23:30;83.60;;;3.00;;
651;SDS011;310;48.490;9.200;2023-06-04T02:25:56;82.07;;;2.30;;
651;SDS011;310;48.490;9.200;2023-06-04T02:28:21;82.07;;;2.40;;
651;SDS011;310;48.490;9.200;2023-06-04T02:30:47;82.77;;;2.80;;
651;SDS011;310;48.490;9.200;2023-06-04T02:33:13;82.50;;;3.00;;
651;SDS011;310;48.490;9.200;2023-06-04T02:35:39;88.50;;;3.80;;
651;SDS011;310;48.490;9.200;2023-06-04T02:38:06;81.87;;;2.37;;
651;SDS011;310;48.490;9.200;2023-06-04T02:40:32;82.70;;;2.47;;
651;SDS011;310;48.490;9.200;2023-06-04T02:42:58;81.90;;;2.33;;
651;SDS011;310;48.490;9.200;2023-06-04T02:45:24;81.77;;;2.20;;
651;SDS011;310;48.490;9.200;2023-06-04T02:47:49;83.13;;;2.80;;
651;SDS011;310;48.490;9.200;2023-06-04T02:50:15;84.07;;;2.60;;
651;SDS011;310;48.490;9.200;2023-06-04T02:52:42;83.00;;;3.00;;
651;SDS011;310;48.490;9.200;2023-06-04T02:55:08;82.30;;;2.80;;
651;SDS011;310;48.490;9.200;2023-06-04T02:57:34;82.90;;;2.90;;
651;SDS011;310;48.490;9.200;2023-06-04T03:00:00;82.97;;;2.33;;
651;SDS011;310;48.490;9.200;2023-06-04T03:02:27;83.53;;;3.03;;
651;SDS011;310;48.490;9.200;2023-06-04T03:04:53;82.30;;;2.40;;
651;SDS011;310;48.490;9.200;2023-06-04T03:07:20;83.00;;;3.00;;
651;SDS011;310;48.490;9.200;2023-06-04T03:09:48;84.10;;;2.63;;
651;SDS011;310;48.490;9.200;2023-06-04T03:12:14;82.23;;;2.33;;
651;SDS011;310;48.490;9.200;2023-06-04T03:14:40;82.30;;;2.50;;
651;SDS011;310;48.490;9.200;2023-06-04T03:17:06;82.50;;;2.43;;
651;SDS011;310;48.490;9.200;2023-06-04T03:19:38;83.50;;;2.73;;
651;SDS011;310;48.490;9.200;2023-06-04T03:22:05;93.87;;;3.50;;
651;SDS011;310;48.490;9.200;2023-06-04T03:24:35;82.70;;;2.80;;
651;SDS011;310;48.490;9.200;2023-06-04T03:27:02;82.97;;;2.60;;
651;SDS011;310;48.490;9.200;2023-06-04T03:29:29;82.47;;;2.50;;
651;SDS011;310;48.490;9.200;2023-06-04T03:31:56;83.90;;;3.10;;
651;SDS011;310;48.490;9.200;2023-06-04T03:34:21;82.43;;;2.30;;
651;SDS011;310;48.490;9.200;2023-06-04T03:36:50;83.60;;;2.87;;
651;SDS011;310;48.490;9.200;2023-06-04T03:39:19;82.73;;;2.40;;
651;SDS011;310;48.490;9.200;2023-06-04T03:41:45;84.27;;;3.40;;
651;SDS011;310;48.490;9.200;2023-06-04T03:44:17;84.87;;;3.07;;
651;SDS011;310;48.490;9.200;2023-06-04T03:46:43;82.73;;;2.60;;
651;SDS011;310;48.490;9.200;2023-06-04T03:49:10;82.57;;;2.33;;
651;SDS011;310;48.490;9.200;2023-06-04T03:51:37;82.77;;;2.43;;
651;SDS011;310;48.490;9.200;2023-06-04T03:54:03;85.00;;;2.80;;
651;SDS011;310;48.490;9.200;2023-06-04T03:56:29;85.37;;;3.00;;
651;SDS011;310;48.490;9.200;2023-06-04T03:58:55;83.30;;;2.93;;
651;SDS011;310;48.490;9.200;2023-06-04T04:01:21;82.80;;;2.50;;
651;SDS011;310;48.490;9.200;2023-06-04T04:03:48;82.87;;;2.50;;
651;SDS011;310;48.490;9.200;2023-06-04T04:06:15;83.30;;;2.60;;
651;SDS011;310;48.490;9.200;2023-06-04T04:08:41;83.10;;;2.67;;
651;SDS011;310;48.490;9.200;2023-06-04T04:11:13;84.00;;;2.60;;
651;SDS011;310;48.490;9.200;2023-06-04T04:13:39;82.80;;;2.40;;
651;SDS011;310;48.490;9.200;2023-06-04T04:16:05;82.67;;;2.40;;
651;SDS011;310;48.490;9.200;2023-06-04T04:18:34;82.67;;;2.43;;
651;SDS011;310;48.490;9.200;2023-06-04T04:21:01;83.10;;;2.40;;
651;SDS011;310;48.490;9.200;2023-06-04T04:23:28;83.27;;;2.70;;
651;SDS011;310;48.490;9.200;2023-06-04T04:25:54;82.90;;;2.73;;
651;SDS011;310;48.490;9.200;2023-06-04T04:28:21;83.70;;;2.60;;
651;SDS011;310;48.490;9.200;2023-06-04T04:30:47;82.57;;;2.23;;
651;SDS011;310;48.490;9.200;2023-06-04T04:33:13;84.10;;;2.90;;
651;SDS011;310;48.490;9.200;2023-06-04T04:35:42;83.13;;;2.40;;
651;SDS011;310;48.490;9.200;2023-06-04T04:38:09;83.13;;;2.50;;
651;SDS011;310;48.490;9.200;2023-06-04T04:40:35;116.60;;;2.80;;
651;SDS011;310;48.490;9.200;2023-06-04T04:43:01;82.97;;;2.40;;
651;SDS011;310;48.490;9.200;2023-06-04T04:45:27;82.67;;;2.53;;
651;SDS011;310;48.490;9.200;2023-06-04T04:47:53;82.60;;;2.50;;
651;SDS011;310;48.490;9.200;2023-06-04T04:50:18;82.63;;;2.57;;
651;SDS011;310;48.490;9.200;2023-06-04T04:52:44;83.63;;;2.53;;
651;SDS011;310;48.490;9.200;2023-06-04T04:55:10;82.17;;;2.10;;
651;SDS011;310;48.490;9.200;2023-06-04T04:57:37;82.57;;;2.17;;
651;SDS011;310;48.490;9.200;2023-06-04T05:00:03;83.07;;;2.67;;
651;SDS011;310;48.490;9.200;2023-06-04T05:02:31;83.97;;;2.97;;
651;SDS011;310;48.490;9.200;2023-06-04T05:04:56;82.70;;;2.43;;
651;SDS011;310;48.490;9.200;2023-06-04T05:07:22;83.47;;;2.90;;
651;SDS011;310;48.490;9.200;2023-06-04T05:09:49;82.83;;;2.67;;
651;SDS011;310;48.490;9.200;2023-06-04T05:12:15;82.77;;;2.53;;
651;SDS011;310;48.490;9.200;2023-06-04T05:14:41;84.10;;;2.47;;
651;SDS011;310;48.490;9.200;2023-06-04T05:17:06;83.80;;;3.03;;
651;SDS011;310;48.490;9.200;2023-06-04T05:19:35;83.17;;;2.60;;
651;SDS011;310;48.490;9.200;2023-06-04T05:22:02;83.10;;;2.70;;
651;SDS011;310;48.490;9.200;2023-06-04T05:24:28;82.30;;;2.30;;
651;SDS011;310;48.490;9.200;2023-06-04T05:26:54;82.33;;;2.33;;
651;SDS011;310;48.490;9.200;2023-06-04T05:29:22;84.77;;;3.00;;
651;SDS011;310;48.490;9.200;2023-06-04T05:31:48;82.77;;;2.53;;
651;SDS011;310;48.490;9.200;2023-06-04T05:34:13;82.60;;;2.50;;
651;SDS011;310;48.490;9.200;2023-06-04T05:36:41;84.20;;;2.70;;
651;SDS011;310;48.490;9.200;2023-06-04T05:39:07;83.47;;;2.97;;
651;SDS011;310;48.490;9.200;2023-06-04T05:41:34;83.07;;;2.97;;
651;SDS011;310;48.490;9.200;2023-06-04T05:44:00;83.50;;;3.10;;
651;SDS011;310;48.490;9.200;2023-06-04T05:46:27;82.67;;;2.90;;
651;SDS011;310;48.490;9.200;2023-06-04T05:48:52;83.27;;;2.80;;
651;SDS011;310;48.490;9.200;2023-06-04T05:51:19;84.37;;;2.83;;
651;SDS011;310;48.490;9.200;2023-06-04T05:53:45;82.90;;;2.87;;
651;SDS011;310;48.490;9.200;2023-06-04T05:56:11;87.00;;;3.50;;
651;SDS011;310;48.490;9.200;2023-06-04T05:58:36;82.77;;;2.83;;
651;SDS011;310;48.490;9.200;2023-06-04T06:01:02;84.97;;;3.40;;
651;SDS011;310;48.490;9.200;2023-06-04T06:03:28;82.40;;;2.60;;
651;SDS011;310;48.490;9.200;2023-06-04T06:05:54;82.50;;;2.43;;
651;SDS011;310;48.490;9.200;2023-06-04T06:08:22;82.03;;;2.30;;
651;SDS011;310;48.490;9.200;2023-06-04T06:10:47;83.87;;;3.40;;
651;SDS011;310;48.490;9.200;2023-06-04T06:13:13;81.97;;;2.30;;
651;SDS011;310;48.490;9.200;2023-06-04T06:15:39;84.70;;;3.03;;
651;SDS011;310;48.490;9.200;2023-06-04T06:18:04;82.90;;;3.00;;
651;SDS011;310;48.490;9.200;2023-06-04T06:20:30;82.00;;;2.47;;
651;SDS011;310;48.490;9.200;2023-06-04T06:22:57;82.20;;;2.50;;
651;SDS011;310;48.490;9.200;2023-06-04T06:25:23;81.77;;;2.27;;
651;SDS011;310;48.490;9.200;2023-06-04T06:27:49;82.17;;;2.70;;
651;SDS011;310;48.490;9.200;2023-06-04T06:30:16;82.13;;;2.57;;
651;SDS011;310;48.490;9.200;2023-06-04T06:32:42;81.97;;;2.60;;
651;SDS011;310;48.490;9.200;2023-06-04T06:35:07;82.90;;;2.63;;
651;SDS011;310;48.490;9.200;2023-06-04T06:37:33;81.70;;;2.30;;
651;SDS011;310;48.490;9.200;2023-06-04T06:39:59;81.67;;;2.30;;
651;SDS011;310;48.490;9.200;2023-06-04T06:42:25;82.10;;;2.80;;
651;SDS011;310;48.490;9.200;2023-06-04T06:44:50;81.53;;;2.37;;
651;SDS011;310;48.490;9.200;2023-06-04T06:47:16;81.70;;;2.10;;
651;SDS011;310;48.490;9.200;2023-06-04T06:49:42;82.63;;;2.70;;
651;SDS011;310;48.490;9.200;2023-06-04T06:52:08;81.70;;;2.30;;
651;SDS011;310;48.490;9.200;2023-06-04T06:54:34;81.60;;;2.20;;
651;SDS011;310;48.490;9.200;2023-06-04T06:57:00;81.57;;;2.30;;
651;SDS011;310;48.490;9.200;2023-06-04T06:59:27;81.63;;;2.50;;
651;SDS011;310;48.490;9.200;2023-06-04T07:01:53;82.00;;;2.80;;
651;SDS011;310;48.490;9.200;2023-06-04T07:04:18;81.97;;;2.50;;
651;SDS011;310;48.490;9.200;2023-06-04T07:06:45;99.07;;;3.07;;
651;SDS011;310;48.490;9.200;2023-06-04T07:09:11;81.67;;;2.60;;
651;SDS011;310;48.490;9.200;2023-06-04T07:11:37;82.20;;;2.93;;
651;SDS011;310;48.490;9.200;2023-06-04T07:14:03;81.10;;;2.27;;
651;SDS011;310;48.490;9.200;2023-06-04T07:16:28;81.83;;;2.97;;
651;SDS011;310;48.490;9.200;2023-06-04T07:18:54;81.40;;;2.60;;
651;SDS011;310;48.490;9.200;2023-06-04T07:21:20;82.70;;;2.77;;
651;SDS011;310;48.490;9.200;2023-06-04T07:23:47;83.37;;;3.00;;
651;SDS011;310;48.490;9.200;2023-06-04T07:26:15;81.30;;;2.50;;
651;SDS011;310;48.490;9.200;2023-06-04T07:28:41;80.93;;;2.50;;
651;SDS011;310;48.490;9.200;2023-06-04T07:31:07;80.97;;;2.63;;
651;SDS011;310;48.490;9.200;2023-06-04T07:33:32;80.87;;;2.33;;
651;SDS011;310;48.490;9.200;2023-06-04T07:35:58;81.70;;;2.83;;
651;SDS011;310;48.490;9.200;2023-06-04T07:38:24;80.50;;;2.20;;
651;SDS011;310;48.490;9.200;2023-06-04T07:40:51;80.40;;;2.10;;
651;SDS011;310;48.490;9.200;2023-06-04T07:43:16;81.17;;;2.53;;
651;SDS011;310;48.490;9.200;2023-06-04T07:45:42;80.50;;;2.30;;
651;SDS011;310;48.490;9.200;2023-06-04T07:48:10;80.40;;;2.13;;
651;SDS011;310;48.490;9.200;2023-06-04T07:50:36;81.00;;;2.50;;
651;SDS011;310;48.490;9.200;2023-06-04T07:53:02;80.83;;;2.40;;
651;SDS011;310;48.490;9.200;2023-06-04T07:55:28;80.50;;;2.27;;
651;SDS011;310;48.490;9.200;2023-06-04T07:57:53;80.43;;;2.20;;
651;SDS011;310;48.490;9.200;2023-06-04T08:00:19;80.37;;;2.27;;
651;SDS011;310;48.490;9.200;2023-06-04T08:02:45;80.67;;;2.40;;
651;SDS011;310;48.490;9.200;2023-06-04T08:05:10;80.17;;;2.33;;
651;SDS011;310;48.490;9.200;2023-06-04T08:07:38;79.87;;;2.30;;
651;SDS011;310;48.490;9.200;2023-06-04T08:10:05;79.87;;;2.20;;
651;SDS011;310;48.490;9.200;2023-06-04T08:12:31;80.07;;;2.10;;
651;SDS011;310;48.490;9.200;2023-06-04T08:14:57;80.20;;;2.67;;
651;SDS011;310;48.490;9.200;2023-06-04T08:17:22;79.80;;;2.30;;
651;SDS011;310;48.490;9.200;2023-06-04T08:19:48;79.67;;;2.10;;
651;SDS011;310;48.490;9.200;2023-06-04T08:22:14;80.37;;;2.40;;
651;SDS011;310;48.490;9.200;2023-06-04T08:24:40;79.53;;;2.40;;
651;SDS011;310;48.490;9.200;2023-06-04T08:27:05;80.30;;;2.57;;
651;SDS011;310;48.490;9.200;2023-06-04T08:29:33;79.17;;;2.17;;
651;SDS011;310;48.490;9.200;2023-06-04T08:32:00;79.87;;;2.37;;
651;SDS011;310;48.490;9.200;2023-06-04T08:34:26;79.37;;;2.27;;
651;SDS011;310;48.490;9.200;2023-06-04T08:36:52;79.37;;;2.20;;
651;SDS011;310;48.490;9.200;2023-06-04T08:39:17;93.13;;;2.80;;
651;SDS011;310;48.490;9.200;2023-06-04T08:41:48;78.90;;;2.30;;
651;SDS011;310;48.490;9.200;2023-06-04T08:44:16;79.37;;;2.60;;
651;SDS011;310;48.490;9.200;2023-06-04T08:46:42;78.80;;;2.03;;
651;SDS011;310;48.490;9.200;2023-06-04T08:49:09;78.73;;;2.20;;
651;SDS011;310;48.490;9.200;2023-06-04T08:51:37;78.70;;;2.20;;
651;SDS011;310;48.490;9.200;2023-06-04T08:54:07;78.40;;;2.07;;
651;SDS011;310;48.490;9.200;2023-06-04T08:56:34;78.47;;;2.10;;
651;SDS011;310;48.490;9.200;2023-06-04T08:59:01;78.37;;;2.20;;
651;SDS011;310;48.490;9.200;2023-06-04T09:01:28;78.57;;;2.40;;
651;SDS011;310;48.490;9.200;2023-06-04T09:03:56;78.40;;;2.40;;
651;SDS011;310;48.490;9.200;2023-06-04T09:06:26;78.70;;;2.50;;
651;SDS011;310;48.490;9.200;2023-06-04T09:08:52;78.10;;;2.20;;
651;SDS011;310;48.490;9.200;2023-06-04T09:11:21;78.40;;;2.50;;
651;SDS011;310;48.490;9.200;2023-06-04T09:13:48;77.90;;;2.20;;
651;SDS011;310;48.490;9.200;2023-06-04T09:16:15;77.47;;;1.90;;
651;SDS011;310;48.490;9.200;2023-06-04T09:18:40;78.40;;;2.50;;
651;SDS011;310;48.490;9.200;2023-06-04T09:21:07;78.83;;;2.80;;
651;SDS011;310;48.490;9.200;2023-06-04T09:26:08;77.33;;;2.07;;
651;SDS011;310;48.490;9.200;2023-06-04T09:28:34;77.17;;;2.10;;
651;SDS011;310;48.490;9.200;2023-06-04T09:31:01;79.50;;;2.23;;
651;SDS011;310;48.490;9.200;2023-06-04T09:33:27;78.00;;;2.60;;
651;SDS011;310;48.490;9.200;2023-06-04T09:35:57;77.67;;;2.40;;
651;SDS011;310;48.490;9.200;2023-06-04T09:38:23;77.50;;;2.47;;
651;SDS011;310;48.490;9.200;2023-06-04T09:40:57;76.80;;;2.20;;
651;SDS011;310;48.490;9.200;2023-06-04T09:43:25;78.10;;;3.10;;
651;SDS011;310;48.490;9.200;2023-06-04T09:45:51;76.47;;;1.87;;
651;SDS011;310;48.490;9.200;2023-06-04T09:48:20;76.87;;;2.30;;
651;SDS011;310;48.490;9.200;2023-06-04T09:50:46;77.00;;;2.43;;
651;SDS011;310;48.490;9.200;2023-06-04T09:53:17;78.40;;;2.90;;
651;SDS011;310;48.490;9.200;2023-06-04T09:55:59;76.83;;;2.47;;
651;SDS011;310;48.490;9.200;2023-06-04T09:58:26;76.57;;;2.13;;
651;SDS011;310;48.490;9.200;2023-06-04T10:00:53;76.70;;;2.30;;
651;SDS011;310;48.490;9.200;2023-06-04T10:03:20;77.03;;;2.60;;
651;SDS011;310;48.490;9.200;2023-06-04T10:05:50;75.77;;;2.17;;
651;SDS011;310;48.490;9.200;2023-06-04T10:08:18;77.10;;;2.80;;
651;SDS011;310;48.490;9.200;2023-06-04T10:10:46;75.57;;;2.20;;
651;SDS011;310;48.490;9.200;2023-06-04T10:13:17;75.80;;;2.20;;
651;SDS011;310;48.490;9.200;2023-06-04T10:15:44;76.60;;;2.43;;
651;SDS011;310;48.490;9.200;2023-06-04T10:18:10;75.57;;;2.27;;
651;SDS011;310;48.490;9.200;2023-06-04T10:20:38;75.80;;;2.37;;
651;SDS011;310;48.490;9.200;2023-06-04T10:23:05;75.17;;;2.20;;
651;SDS011;310;48.490;9.200;2023-06-04T10:25:32;75.27;;;2.30;;
651;SDS011;310;48.490;9.200;2023-06-04T10:28:03;75.00;;;2.57;;
651;SDS011;310;48.490;9.200;2023-06-04T10:30:29;74.40;;;1.87;;
651;SDS011;310;48.490;9.200;2023-06-04T10:32:56;74.67;;;2.20;;
651;SDS011;310;48.490;9.200;2023-06-04T10:35:35;74.37;;;2.00;;
651;SDS011;310;48.490;9.200;2023-06-04T10:38:05;74.20;;;1.90;;
651;SDS011;310;48.490;9.200;2023-06-04T10:40:35;74.43;;;2.10;;
651;SDS011;310;48.490;9.200;2023-06-04T10:43:08;74.30;;;2.00;;
651;SDS011;310;48.490;9.200;2023-06-04T10:45:35;74.47;;;2.03;;
651;SDS011;310;48.490;9.200;2023-06-04T10:48:02;74.10;;;1.97;;
651;SDS011;310;48.490;9.200;2023-06-04T10:50:28;74.47;;;2.20;;
651;SDS011;310;48.490;9.200;2023-06-04T10:52:54;74.00;;;2.23;;
651;SDS011;310;48.490;9.200;2023-06-04T10:55:22;74.10;;;2.00;;
651;SDS011;310;48.490;9.200;2023-06-04T10:57:58;73.80;;;2.17;;
651;SDS011;310;48.490;9.200;2023-06-04T11:00:35;75.47;;;2.27;;
651;SDS011;310;48.490;9.200;2023-06-04T11:03:02;74.13;;;2.40;;
651;SDS011;310;48.490;9.200;2023-06-04T11:05:54;74.17;;;2.40;;
651;SDS011;310;48.490;9.200;2023-06-04T11:08:29;73.60;;;2.30;;
651;SDS011;310;48.490;9.200;2023-06-04T11:10:55;73.23;;;2.20;;
651;SDS011;310;48.490;9.200;2023-06-04T11:13:24;73.80;;;2.17;;
651;SDS011;310;48.490;9.200;2023-06-04T11:15:53;73.53;;;2.20;;
651;SDS011;310;48.490;9.200;2023-06-04T11:18:20;74.00;;;2.80;;
651;SDS011;310;48.490;9.200;2023-06-04T11:20:47;73.67;;;2.50;;
651;SDS011;310;48.490;9.200;2023-06-04T11:23:13;72.63;;;1.90;;
651;SDS011;310;48.490;9.200;2023-06-04T11:25:40;82.23;;;2.20;;
651;SDS011;310;48.490;9.200;2023-06-04T11:28:08;72.80;;;2.10;;
651;SDS011;310;48.490;9.200;2023-06-04T11:30:59;72.80;;;2.00;;
651;SDS011;310;48.490;9.200;2023-06-04T11:33:30;72.70;;;2.23;;
651;SDS011;310;48.490;9.200;2023-06-04T11:38:53;73.10;;;2.20;;
651;SDS011;310;48.490;9.200;2023-06-04T11:41:20;73.00;;;1.80;;
651;SDS011;310;48.490;9.200;2023-06-04T11:43:49;72.80;;;1.90;;
651;SDS011;310;48.490;9.200;2023-06-04T11:46:14;72.77;;;2.10;;
651;SDS011;310;48.490;9.200;2023-06-04T11:48:40;73.20;;;2.43;;
651;SDS011;310;48.490;9.200;2023-06-04T11:51:07;72.87;;;2.17;;
651;SDS011;310;48.490;9.200;2023-06-04T11:53:34;72.70;;;2.10;;
651;SDS011;310;48.490;9.200;2023-06-04T11:56:02;73.17;;;2.50;;
651;SDS011;310;48.490;9.200;2023-06-04T11:58:28;72.30;;;1.90;;
651;SDS011;310;48.490;9.200;2023-06-04T12:00:55;72.10;;;1.83;;
651;SDS011;310;48.490;9.200;2023-06-04T12:03:35;71.77;;;2.00;;
651;SDS011;310;48.490;9.200;2023-06-04T12:06:09;70.90;;;2.10;;
651;SDS011;310;48.490;9.200;2023-06-04T12:11:25;71.47;;;2.33;;
651;SDS011;310;48.490;9.200;2023-06-04T12:13:56;69.73;;;1.80;;
651;SDS011;310;48.490;9.200;2023-06-04T12:16:23;70.07;;;2.10;;
651;SDS011;310;48.490;9.200;2023-06-04T12:18:49;70.07;;;1.97;;
651;SDS011;310;48.490;9.200;2023-06-04T12:21:25;70.30;;;2.10;;
651;SDS011;310;48.490;9.200;2023-06-04T12:24:07;71.07;;;2.43;;
651;SDS011;310;48.490;9.200;2023-06-04T12:26:38;69.47;;;2.10;;
651;SDS011;310;48.490;9.200;2023-06-04T12:29:15;69.27;;;1.80;;
651;SDS011;310;48.490;9.200;2023-06-04T12:31:43;68.87;;;1.90;;
651;SDS011;310;48.490;9.200;2023-06-04T12:34:10;70.27;;;2.23;;
651;SDS011;310;48.490;9.200;2023-06-04T12:36:38;68.30;;;1.80;;
651;SDS011;310;48.490;9.200;2023-06-04T12:39:04;67.77;;;1.70;;
651;SDS011;310;48.490;9.200;2023-06-04T12:41:30;68.00;;;2.23;;
651;SDS011;310;48.490;9.200;2023-06-04T12:43:58;68.63;;;1.87;;
651;SDS011;310;48.490;9.200;2023-06-04T12:46:24;67.40;;;1.93;;
651;SDS011;310;48.490;9.200;2023-06-04T12:48:51;67.40;;;2.00;;
651;SDS011;310;48.490;9.200;2023-06-04T12:51:17;66.60;;;1.87;;
651;SDS011;310;48.490;9.200;2023-06-04T12:53:43;66.03;;;1.97;;
651;SDS011;310;48.490;9.200;2023-06-04T12:56:09;66.17;;;1.97;;
651;SDS011;310;48.490;9.200;2023-06-04T12:58:35;65.07;;;1.87;;
651;SDS011;310;48.490;9.200;2023-06-04T13:01:01;64.93;;;2.00;;
651;SDS011;310;48.490;9.200;2023-06-04T13:03:27;65.53;;;1.90;;
651;SDS011;310;48.490;9.200;2023-06-04T13:05:54;70.03;;;2.10;;
651;SDS011;310;48.490;9.200;2023-06-04T13:08:20;65.20;;;1.80;;
651;SDS011;310;48.490;9.200;2023-06-04T13:10:46;65.17;;;2.13;;
651;SDS011;310;48.490;9.200;2023-06-04T13:13:13;65.37;;;2.10;;
651;SDS011;310;48.490;9.200;2023-06-04T13:15:40;66.43;;;2.27;;
651;SDS011;310;48.490;9.200;2023-06-04T13:18:06;65.67;;;2.30;;
651;SDS011;310;48.490;9.200;2023-06-04T13:20:32;66.03;;;2.20;;
651;SDS011;310;48.490;9.200;2023-06-04T13:22:58;65.17;;;1.80;;
651;SDS011;310;48.490;9.200;2023-06-04T13:25:23;66.17;;;2.27;;
651;SDS011;310;48.490;9.200;2023-06-04T13:27:49;65.93;;;2.33;;
651;SDS011;310;48.490;9.200;2023-06-04T13:30:15;65.90;;;2.10;;
651;SDS011;310;48.490;9.200;2023-06-04T13:32:40;73.23;;;2.73;;
651;SDS011;310;48.490;9.200;2023-06-04T13:35:06;66.47;;;2.43;;
651;SDS011;310;48.490;9.200;2023-06-04T13:37:32;67.07;;;2.47;;
651;SDS011;310;48.490;9.200;2023-06-04T13:39:57;67.17;;;2.40;;
651;SDS011;310;48.490;9.200;2023-06-04T13:42:23;65.87;;;2.10;;
651;SDS011;310;48.490;9.200;2023-06-04T13:44:49;66.17;;;2.43;;
651;SDS011;310;48.490;9.200;2023-06-04T13:47:14;66.70;;;2.57;;
651;SDS011;310;48.490;9.200;2023-06-04T13:49:40;65.93;;;2.00;;
651;SDS011;310;48.490;9.200;2023-06-04T13:52:05;66.60;;;2.47;;
651;SDS011;310;48.490;9.200;2023-06-04T13:54:31;67.27;;;2.30;;
651;SDS011;310;48.490;9.200;2023-06-04T13:56:56;65.97;;;2.20;;
651;SDS011;310;48.490;9.200;2023-06-04T13:59:22;65.70;;;1.93;;
651;SDS011;310;48.490;9.200;2023-06-04T14:01:48;66.20;;;2.40;;
651;SDS011;310;48.490;9.200;2023-06-04T14:04:13;66.13;;;2.20;;
651;SDS011;310;48.490;9.200;2023-06-04T14:06:39;66.60;;;2.20;;
651;SDS011;310;48.490;9.200;2023-06-04T14:09:05;66.10;;;2.07;;
651;SDS011;310;48.490;9.200;2023-06-04T14:11:31;66.53;;;2.30;;
651;SDS011;310;48.490;9.200;2023-06-04T14:13:57;66.57;;;2.13;;
651;SDS011;310;48.490;9.200;2023-06-04T14:16:23;66.97;;;2.47;;
651;SDS011;310;48.490;9.200;2023-06-04T14:18:49;66.50;;;2.17;;
651;SDS011;310;48.490;9.200;2023-06-04T14:21:14;68.30;;;2.80;;
651;SDS011;310;48.490;9.200;2023-06-04T14:23:40;66.30;;;2.20;;
651;SDS011;310;48.490;9.200;2023-06-04T14:26:06;66.40;;;2.20;;
651;SDS011;310;48.490;9.200;2023-06-04T14:28:31;67.33;;;2.20;;
651;SDS011;310;48.490;9.200;2023-06-04T14:30:57;66.67;;;2.37;;
651;SDS011;310;48.490;9.200;2023-06-04T14:33:23;67.90;;;2.83;;
651;SDS011;310;48.490;9.200;2023-06-04T14:35:49;67.33;;;2.20;;
651;SDS011;310;48.490;9.200;2023-06-04T14:38:15;66.40;;;2.03;;
651;SDS011;310;48.490;9.200;2023-06-04T14:40:41;66.97;;;2.60;;
651;SDS011;310;48.490;9.200;2023-06-04T14:43:09;66.50;;;2.07;;
651;SDS011;310;48.490;9.200;2023-06-04T14:45:35;66.47;;;2.00;;
651;SDS011;310;48.490;9.200;2023-06-04T14:48:03;66.60;;;2.43;;
651;SDS011;310;48.490;9.200;2023-06-04T14:50:29;67.57;;;2.60;;
651;SDS011;310;48.490;9.200;2023-06-04T14:52:54;66.23;;;2.17;;
651;SDS011;310;48.490;9.200;2023-06-04T14:55:20;66.87;;;2.10;;
651;SDS011;310;48.490;9.200;2023-06-04T14:57:46;66.80;;;2.17;;
651;SDS011;310;48.490;9.200;2023-06-04T15:00:13;67.67;;;2.07;;
651;SDS011;310;48.490;9.200;2023-06-04T15:02:39;66.57;;;2.20;;
651;SDS011;310;48.490;9.200;2023-06-04T15:05:05;67.20;;;2.33;;
651;SDS011;310;48.490;9.200;2023-06-04T15:07:31;66.57;;;2.10;;
651;SDS011;310;48.490;9.200;2023-06-04T15:09:56;66.40;;;1.97;;
651;SDS011;310;48.490;9.200;2023-06-04T15:12:22;67.00;;;2.20;;
651;SDS011;310;48.490;9.200;2023-06-04T15:14:47;66.80;;;2.20;;
651;SDS011;310;48.490;9.200;2023-06-04T15:17:13;67.40;;;2.33;;
651;SDS011;310;48.490;9.200;2023-06-04T15:19:38;67.07;;;2.20;;
651;SDS011;310;48.490;9.200;2023-06-04T15:22:04;68.17;;;2.50;;
651;SDS011;310;48.490;9.200;2023-06-04T15:24:30;67.30;;;2.30;;
651;SDS011;310;48.490;9.200;2023-06-04T15:26:56;67.30;;;2.20;;
651;SDS011;310;48.490;9.200;2023-06-04T15:29:22;68.10;;;2.37;;
651;SDS011;310;48.490;9.200;2023-06-04T15:31:47;68.37;;;2.77;;
651;SDS011;310;48.490;9.200;2023-06-04T15:34:13;67.27;;;1.90;;
651;SDS011;310;48.490;9.200;2023-06-04T15:36:38;67.57;;;2.27;;
651;SDS011;310;48.490;9.200;2023-06-04T15:39:04;67.60;;;2.20;;
651;SDS011;310;48.490;9.200;2023-06-04T15:41:30;67.50;;;2.10;;
651;SDS011;310;48.490;9.200;2023-06-04T15:43:56;68.27;;;2.27;;
651;SDS011;310;48.490;9.200;2023-06-04T15:46:24;67.43;;;2.20;;
651;SDS011;310;48.490;9.200;2023-06-04T15:48:50;68.27;;;2.63;;